sensor_id;sensor_type;location;lat;lon;timestamp;P1;durP1;ratioP1;P2;durP2;ratioP2
48550;SDS011;34397;51.176;6.738;2023-10-09T00:01:53;21.55;;;10.48;;
48550;SDS011;34397;51.176;6.738;2023-10-09T00:04:25;15.88;;;10.05;;
48550;SDS011;34397;51.176;6.738;2023-10-09T00:06:58;15.70;;;9.73;;
48550;SDS011;34397;51.176;6.738;2023-10-09T00:09:32;19.45;;;9.77;;
48550;SDS011;34397;51.176;6.738;2023-10-09T00:12:16;18.30;;;10.23;;
48550;SDS011;34397;51.176;6.738;2023-10-09T00:14:52;23.42;;;11.18;;
48550;SDS011;34397;51.176;6.738;2023-10-09T00:17:26;15.57;;;9.43;;
48550;SDS011;34397;51.176;6.738;2023-10-09T00:20:01;16.27;;;10.02;;
48550;SDS011;34397;51.176;6.738;2023-10-09T00:22:47;18.98;;;10.68;;
48550;SDS011;34397;51.176;6.738;2023-10-09T00:25:20;17.75;;;9.70;;
48550;SDS011;34397;51.176;6.738;2023-10-09T00:27:59;20.13;;;10.10;;
48550;SDS011;34397;51.176;6.738;2023-10-09T00:30:40;14.68;;;9.20;;
48550;SDS011;34397;51.176;6.738;2023-10-09T00:33:12;18.52;;;9.60;;
48550;SDS011;34397;51.176;6.738;2023-10-09T00:35:45;14.70;;;8.70;;
48550;SDS011;34397;51.176;6.738;2023-10-09T00:38:24;16.33;;;9.10;;
48550;SDS011;34397;51.176;6.738;2023-10-09T00:41:05;13.13;;;8.45;;
48550;SDS011;34397;51.176;6.738;2023-10-09T00:43:50;17.48;;;9.13;;
48550;SDS011;34397;51.176;6.738;2023-10-09T00:46:22;19.45;;;9.45;;
48550;SDS011;34397;51.176;6.738;2023-10-09T00:48:56;15.80;;;9.15;;
48550;SDS011;34397;51.176;6.738;2023-10-09T00:51:33;16.38;;;8.90;;
48550;SDS011;34397;51.176;6.738;2023-10-09T00:54:05;17.13;;;9.68;;
48550;SDS011;34397;51.176;6.738;2023-10-09T00:56:45;17.38;;;9.02;;
48550;SDS011;34397;51.176;6.738;2023-10-09T00:59:27;17.85;;;9.05;;
48550;SDS011;34397;51.176;6.738;2023-10-09T01:02:00;15.80;;;8.55;;
48550;SDS011;34397;51.176;6.738;2023-10-09T01:04:37;16.08;;;9.00;;
48550;SDS011;34397;51.176;6.738;2023-10-09T01:07:13;15.15;;;8.68;;
48550;SDS011;34397;51.176;6.738;2023-10-09T01:09:46;15.10;;;8.43;;
48550;SDS011;34397;51.176;6.738;2023-10-09T01:12:22;14.68;;;8.52;;
48550;SDS011;34397;51.176;6.738;2023-10-09T01:14:54;14.70;;;8.25;;
48550;SDS011;34397;51.176;6.738;2023-10-09T01:17:29;14.82;;;8.23;;
48550;SDS011;34397;51.176;6.738;2023-10-09T01:20:06;15.85;;;8.35;;
48550;SDS011;34397;51.176;6.738;2023-10-09T01:22:46;13.35;;;7.68;;
48550;SDS011;34397;51.176;6.738;2023-10-09T01:25:22;16.60;;;8.18;;
48550;SDS011;34397;51.176;6.738;2023-10-09T01:27:53;13.63;;;8.27;;
48550;SDS011;34397;51.176;6.738;2023-10-09T01:30:27;12.32;;;8.07;;
48550;SDS011;34397;51.176;6.738;2023-10-09T01:32:58;14.07;;;7.70;;
48550;SDS011;34397;51.176;6.738;2023-10-09T01:35:41;12.00;;;7.38;;
48550;SDS011;34397;51.176;6.738;2023-10-09T01:38:19;12.38;;;7.55;;
48550;SDS011;34397;51.176;6.738;2023-10-09T01:41:01;14.23;;;7.68;;
48550;SDS011;34397;51.176;6.738;2023-10-09T01:43:37;18.85;;;9.18;;
48550;SDS011;34397;51.176;6.738;2023-10-09T01:46:15;13.38;;;8.02;;
48550;SDS011;34397;51.176;6.738;2023-10-09T01:48:49;11.50;;;7.05;;
48550;SDS011;34397;51.176;6.738;2023-10-09T01:51:23;13.55;;;8.13;;
48550;SDS011;34397;51.176;6.738;2023-10-09T01:54:03;12.68;;;7.95;;
48550;SDS011;34397;51.176;6.738;2023-10-09T01:56:36;13.85;;;7.70;;
48550;SDS011;34397;51.176;6.738;2023-10-09T01:59:11;13.63;;;7.15;;
48550;SDS011;34397;51.176;6.738;2023-10-09T02:01:43;14.68;;;8.05;;
48550;SDS011;34397;51.176;6.738;2023-10-09T02:04:18;13.77;;;7.72;;
48550;SDS011;34397;51.176;6.738;2023-10-09T02:06:51;12.25;;;7.32;;
48550;SDS011;34397;51.176;6.738;2023-10-09T02:09:22;13.48;;;8.32;;
48550;SDS011;34397;51.176;6.738;2023-10-09T02:12:03;13.52;;;7.70;;
48550;SDS011;34397;51.176;6.738;2023-10-09T02:14:35;12.27;;;7.15;;
48550;SDS011;34397;51.176;6.738;2023-10-09T02:17:11;14.40;;;7.57;;
48550;SDS011;34397;51.176;6.738;2023-10-09T02:19:48;12.18;;;7.40;;
48550;SDS011;34397;51.176;6.738;2023-10-09T02:22:22;14.88;;;7.68;;
48550;SDS011;34397;51.176;6.738;2023-10-09T02:24:56;13.48;;;7.82;;
48550;SDS011;34397;51.176;6.738;2023-10-09T02:27:36;12.85;;;7.35;;
48550;SDS011;34397;51.176;6.738;2023-10-09T02:30:16;13.93;;;8.10;;
48550;SDS011;34397;51.176;6.738;2023-10-09T02:32:50;11.77;;;7.78;;
48550;SDS011;34397;51.176;6.738;2023-10-09T02:35:23;10.18;;;6.57;;
48550;SDS011;34397;51.176;6.738;2023-10-09T02:38:01;13.57;;;7.25;;
48550;SDS011;34397;51.176;6.738;2023-10-09T02:40:36;11.40;;;7.00;;
48550;SDS011;34397;51.176;6.738;2023-10-09T02:43:32;13.50;;;7.75;;
48550;SDS011;34397;51.176;6.738;2023-10-09T02:46:14;10.73;;;7.05;;
48550;SDS011;34397;51.176;6.738;2023-10-09T02:48:49;11.05;;;6.88;;
48550;SDS011;34397;51.176;6.738;2023-10-09T02:51:22;12.65;;;7.25;;
48550;SDS011;34397;51.176;6.738;2023-10-09T02:54:06;13.20;;;7.00;;
48550;SDS011;34397;51.176;6.738;2023-10-09T02:56:48;9.55;;;6.30;;
48550;SDS011;34397;51.176;6.738;2023-10-09T02:59:27;10.63;;;6.53;;
48550;SDS011;34397;51.176;6.738;2023-10-09T03:02:00;12.98;;;6.93;;
48550;SDS011;34397;51.176;6.738;2023-10-09T03:04:32;12.05;;;7.50;;
48550;SDS011;34397;51.176;6.738;2023-10-09T03:07:04;9.32;;;6.35;;
48550;SDS011;34397;51.176;6.738;2023-10-09T03:09:37;13.40;;;6.93;;
48550;SDS011;34397;51.176;6.738;2023-10-09T03:12:10;11.35;;;7.10;;
48550;SDS011;34397;51.176;6.738;2023-10-09T03:17:16;11.77;;;7.43;;
48550;SDS011;34397;51.176;6.738;2023-10-09T03:19:48;11.30;;;6.97;;
48550;SDS011;34397;51.176;6.738;2023-10-09T03:22:20;13.75;;;6.80;;
48550;SDS011;34397;51.176;6.738;2023-10-09T03:24:52;11.68;;;7.10;;
48550;SDS011;34397;51.176;6.738;2023-10-09T03:27:25;12.82;;;7.28;;
48550;SDS011;34397;51.176;6.738;2023-10-09T03:29:58;13.20;;;7.40;;
48550;SDS011;34397;51.176;6.738;2023-10-09T03:32:35;13.00;;;7.00;;
48550;SDS011;34397;51.176;6.738;2023-10-09T03:35:07;11.15;;;7.45;;
48550;SDS011;34397;51.176;6.738;2023-10-09T03:37:43;15.75;;;7.65;;
48550;SDS011;34397;51.176;6.738;2023-10-09T03:40:15;12.73;;;6.80;;
48550;SDS011;34397;51.176;6.738;2023-10-09T03:42:47;12.43;;;7.00;;
48550;SDS011;34397;51.176;6.738;2023-10-09T03:45:21;11.35;;;6.75;;
48550;SDS011;34397;51.176;6.738;2023-10-09T03:47:57;11.73;;;6.95;;
48550;SDS011;34397;51.176;6.738;2023-10-09T03:50:34;10.10;;;6.22;;
48550;SDS011;34397;51.176;6.738;2023-10-09T03:53:11;9.20;;;6.00;;
48550;SDS011;34397;51.176;6.738;2023-10-09T03:55:42;11.57;;;6.20;;
48550;SDS011;34397;51.176;6.738;2023-10-09T03:58:14;10.30;;;6.30;;
48550;SDS011;34397;51.176;6.738;2023-10-09T04:00:50;9.32;;;5.43;;
48550;SDS011;34397;51.176;6.738;2023-10-09T04:03:22;9.90;;;5.95;;
48550;SDS011;34397;51.176;6.738;2023-10-09T04:05:54;10.23;;;5.90;;
48550;SDS011;34397;51.176;6.738;2023-10-09T04:08:26;8.60;;;5.45;;
48550;SDS011;34397;51.176;6.738;2023-10-09T04:11:00;9.88;;;5.97;;
48550;SDS011;34397;51.176;6.738;2023-10-09T04:13:33;9.40;;;5.70;;
48550;SDS011;34397;51.176;6.738;2023-10-09T04:16:07;8.73;;;5.47;;
48550;SDS011;34397;51.176;6.738;2023-10-09T04:19:03;10.50;;;5.85;;
48550;SDS011;34397;51.176;6.738;2023-10-09T04:21:41;10.00;;;5.32;;
48550;SDS011;34397;51.176;6.738;2023-10-09T04:24:12;11.30;;;6.10;;
48550;SDS011;34397;51.176;6.738;2023-10-09T04:26:55;9.63;;;5.63;;
48550;SDS011;34397;51.176;6.738;2023-10-09T04:29:27;9.85;;;5.63;;
48550;SDS011;34397;51.176;6.738;2023-10-09T04:32:09;8.55;;;5.55;;
48550;SDS011;34397;51.176;6.738;2023-10-09T04:34:46;10.80;;;5.88;;
48550;SDS011;34397;51.176;6.738;2023-10-09T04:37:40;7.95;;;5.53;;
48550;SDS011;34397;51.176;6.738;2023-10-09T04:40:14;9.10;;;5.22;;
48550;SDS011;34397;51.176;6.738;2023-10-09T04:43:06;9.57;;;5.60;;
48550;SDS011;34397;51.176;6.738;2023-10-09T04:45:39;8.02;;;5.15;;
48550;SDS011;34397;51.176;6.738;2023-10-09T04:48:30;8.73;;;5.18;;
48550;SDS011;34397;51.176;6.738;2023-10-09T04:51:08;8.45;;;4.78;;
48550;SDS011;34397;51.176;6.738;2023-10-09T04:53:56;8.35;;;5.15;;
48550;SDS011;34397;51.176;6.738;2023-10-09T04:56:42;12.07;;;5.22;;
48550;SDS011;34397;51.176;6.738;2023-10-09T04:59:22;9.50;;;5.20;;
48550;SDS011;34397;51.176;6.738;2023-10-09T05:01:55;6.55;;;4.57;;
48550;SDS011;34397;51.176;6.738;2023-10-09T05:04:31;7.63;;;5.03;;
48550;SDS011;34397;51.176;6.738;2023-10-09T05:07:11;8.93;;;5.40;;
48550;SDS011;34397;51.176;6.738;2023-10-09T05:10:15;9.75;;;4.82;;
48550;SDS011;34397;51.176;6.738;2023-10-09T05:15:26;6.78;;;4.50;;
48550;SDS011;34397;51.176;6.738;2023-10-09T05:18:00;8.07;;;4.70;;
48550;SDS011;34397;51.176;6.738;2023-10-09T05:20:40;8.50;;;5.18;;
48550;SDS011;34397;51.176;6.738;2023-10-09T05:23:35;11.15;;;5.20;;
48550;SDS011;34397;51.176;6.738;2023-10-09T05:26:14;13.10;;;5.05;;
48550;SDS011;34397;51.176;6.738;2023-10-09T05:29:07;9.35;;;4.88;;
48550;SDS011;34397;51.176;6.738;2023-10-09T05:31:49;12.82;;;5.50;;
48550;SDS011;34397;51.176;6.738;2023-10-09T05:34:27;8.88;;;4.53;;
48550;SDS011;34397;51.176;6.738;2023-10-09T05:37:06;8.73;;;5.32;;
48550;SDS011;34397;51.176;6.738;2023-10-09T05:39:47;8.02;;;4.95;;
48550;SDS011;34397;51.176;6.738;2023-10-09T05:42:49;7.95;;;4.38;;
48550;SDS011;34397;51.176;6.738;2023-10-09T05:45:29;7.10;;;4.57;;
48550;SDS011;34397;51.176;6.738;2023-10-09T05:48:15;8.70;;;5.05;;
48550;SDS011;34397;51.176;6.738;2023-10-09T05:51:32;11.15;;;4.90;;
48550;SDS011;34397;51.176;6.738;2023-10-09T05:54:12;12.23;;;5.32;;
48550;SDS011;34397;51.176;6.738;2023-10-09T05:57:02;7.93;;;4.80;;
48550;SDS011;34397;51.176;6.738;2023-10-09T05:59:51;9.85;;;4.78;;
48550;SDS011;34397;51.176;6.738;2023-10-09T06:02:41;9.98;;;4.80;;
48550;SDS011;34397;51.176;6.738;2023-10-09T06:05:30;8.57;;;4.90;;
48550;SDS011;34397;51.176;6.738;2023-10-09T06:08:23;9.82;;;4.90;;
48550;SDS011;34397;51.176;6.738;2023-10-09T06:10:56;10.60;;;5.45;;
48550;SDS011;34397;51.176;6.738;2023-10-09T06:13:35;9.00;;;4.85;;
48550;SDS011;34397;51.176;6.738;2023-10-09T06:16:15;13.10;;;4.97;;
48550;SDS011;34397;51.176;6.738;2023-10-09T06:18:50;10.23;;;5.07;;
48550;SDS011;34397;51.176;6.738;2023-10-09T06:21:38;12.35;;;5.00;;
48550;SDS011;34397;51.176;6.738;2023-10-09T06:24:11;7.95;;;4.60;;
48550;SDS011;34397;51.176;6.738;2023-10-09T06:26:46;8.02;;;4.90;;
48550;SDS011;34397;51.176;6.738;2023-10-09T06:29:36;8.02;;;4.32;;
48550;SDS011;34397;51.176;6.738;2023-10-09T06:32:20;7.47;;;4.63;;
48550;SDS011;34397;51.176;6.738;2023-10-09T06:35:04;8.88;;;4.72;;
48550;SDS011;34397;51.176;6.738;2023-10-09T06:37:51;8.02;;;4.43;;
48550;SDS011;34397;51.176;6.738;2023-10-09T06:40:53;7.95;;;4.47;;
48550;SDS011;34397;51.176;6.738;2023-10-09T06:43:42;10.95;;;5.18;;
48550;SDS011;34397;51.176;6.738;2023-10-09T06:46:17;8.82;;;5.07;;
48550;SDS011;34397;51.176;6.738;2023-10-09T06:49:07;9.55;;;5.05;;
48550;SDS011;34397;51.176;6.738;2023-10-09T06:51:53;9.15;;;5.18;;
48550;SDS011;34397;51.176;6.738;2023-10-09T06:54:43;13.30;;;5.50;;
48550;SDS011;34397;51.176;6.738;2023-10-09T06:57:21;9.45;;;5.55;;
48550;SDS011;34397;51.176;6.738;2023-10-09T07:00:18;10.90;;;4.80;;
48550;SDS011;34397;51.176;6.738;2023-10-09T07:03:13;9.15;;;5.28;;
48550;SDS011;34397;51.176;6.738;2023-10-09T07:05:49;8.25;;;4.90;;
48550;SDS011;34397;51.176;6.738;2023-10-09T07:08:39;11.82;;;5.30;;
48550;SDS011;34397;51.176;6.738;2023-10-09T07:11:28;9.35;;;5.43;;
48550;SDS011;34397;51.176;6.738;2023-10-09T07:14:18;14.68;;;5.20;;
48550;SDS011;34397;51.176;6.738;2023-10-09T07:17:23;9.52;;;4.85;;
48550;SDS011;34397;51.176;6.738;2023-10-09T07:20:14;7.78;;;5.35;;
48550;SDS011;34397;51.176;6.738;2023-10-09T07:23:06;11.48;;;6.20;;
48550;SDS011;34397;51.176;6.738;2023-10-09T07:25:47;10.13;;;5.77;;
48550;SDS011;34397;51.176;6.738;2023-10-09T07:28:30;13.48;;;6.20;;
48550;SDS011;34397;51.176;6.738;2023-10-09T07:31:20;9.23;;;5.93;;
48550;SDS011;34397;51.176;6.738;2023-10-09T07:33:57;10.73;;;6.43;;
48550;SDS011;34397;51.176;6.738;2023-10-09T07:39:04;10.25;;;6.25;;
48550;SDS011;34397;51.176;6.738;2023-10-09T07:41:47;10.93;;;5.35;;
48550;SDS011;34397;51.176;6.738;2023-10-09T07:44:31;10.32;;;5.75;;
48550;SDS011;34397;51.176;6.738;2023-10-09T07:47:09;10.18;;;5.00;;
48550;SDS011;34397;51.176;6.738;2023-10-09T07:49:59;9.95;;;5.93;;
48550;SDS011;34397;51.176;6.738;2023-10-09T07:52:32;8.73;;;5.05;;
48550;SDS011;34397;51.176;6.738;2023-10-09T07:55:13;9.23;;;5.32;;
48550;SDS011;34397;51.176;6.738;2023-10-09T07:57:56;8.38;;;5.38;;
48550;SDS011;34397;51.176;6.738;2023-10-09T08:00:40;11.50;;;6.30;;
48550;SDS011;34397;51.176;6.738;2023-10-09T08:03:27;11.23;;;6.03;;
48550;SDS011;34397;51.176;6.738;2023-10-09T08:06:02;10.02;;;6.00;;
48550;SDS011;34397;51.176;6.738;2023-10-09T08:08:59;10.77;;;5.85;;
48550;SDS011;34397;51.176;6.738;2023-10-09T08:12:08;12.55;;;6.57;;
48550;SDS011;34397;51.176;6.738;2023-10-09T08:14:56;10.40;;;5.78;;
48550;SDS011;34397;51.176;6.738;2023-10-09T08:17:44;11.23;;;5.57;;
48550;SDS011;34397;51.176;6.738;2023-10-09T08:20:22;11.77;;;5.82;;
48550;SDS011;34397;51.176;6.738;2023-10-09T08:22:56;11.60;;;5.93;;
48550;SDS011;34397;51.176;6.738;2023-10-09T08:25:26;9.82;;;5.82;;
48550;SDS011;34397;51.176;6.738;2023-10-09T08:28:02;11.45;;;6.30;;
48550;SDS011;34397;51.176;6.738;2023-10-09T08:30:52;11.48;;;5.82;;
48550;SDS011;34397;51.176;6.738;2023-10-09T08:33:33;11.65;;;6.40;;
48550;SDS011;34397;51.176;6.738;2023-10-09T08:36:12;11.05;;;6.22;;
48550;SDS011;34397;51.176;6.738;2023-10-09T08:38:52;18.05;;;6.70;;
48550;SDS011;34397;51.176;6.738;2023-10-09T08:41:28;11.85;;;6.55;;
48550;SDS011;34397;51.176;6.738;2023-10-09T08:44:01;11.48;;;6.60;;
48550;SDS011;34397;51.176;6.738;2023-10-09T08:46:34;12.70;;;6.63;;
48550;SDS011;34397;51.176;6.738;2023-10-09T08:49:07;11.10;;;6.15;;
48550;SDS011;34397;51.176;6.738;2023-10-09T08:51:41;10.80;;;6.20;;
48550;SDS011;34397;51.176;6.738;2023-10-09T08:54:16;11.23;;;6.13;;
48550;SDS011;34397;51.176;6.738;2023-10-09T08:56:48;12.07;;;6.45;;
48550;SDS011;34397;51.176;6.738;2023-10-09T08:59:24;10.90;;;5.88;;
48550;SDS011;34397;51.176;6.738;2023-10-09T09:01:57;9.85;;;5.65;;
48550;SDS011;34397;51.176;6.738;2023-10-09T09:04:38;11.07;;;5.97;;
48550;SDS011;34397;51.176;6.738;2023-10-09T09:07:25;10.30;;;5.80;;
48550;SDS011;34397;51.176;6.738;2023-10-09T09:10:01;9.65;;;5.30;;
48550;SDS011;34397;51.176;6.738;2023-10-09T09:12:47;10.38;;;5.32;;
48550;SDS011;34397;51.176;6.738;2023-10-09T09:15:23;11.82;;;5.88;;
48550;SDS011;34397;51.176;6.738;2023-10-09T09:18:03;11.02;;;5.63;;
48550;SDS011;34397;51.176;6.738;2023-10-09T09:20:41;11.40;;;6.05;;
48550;SDS011;34397;51.176;6.738;2023-10-09T09:23:16;9.88;;;5.70;;
48550;SDS011;34397;51.176;6.738;2023-10-09T09:25:53;14.20;;;5.68;;
48550;SDS011;34397;51.176;6.738;2023-10-09T09:28:31;12.40;;;5.53;;
48550;SDS011;34397;51.176;6.738;2023-10-09T09:31:09;12.15;;;5.47;;
48550;SDS011;34397;51.176;6.738;2023-10-09T09:33:43;9.18;;;5.20;;
48550;SDS011;34397;51.176;6.738;2023-10-09T09:36:18;9.88;;;5.40;;
48550;SDS011;34397;51.176;6.738;2023-10-09T09:38:52;10.80;;;5.57;;
48550;SDS011;34397;51.176;6.738;2023-10-09T09:41:31;12.63;;;5.75;;
48550;SDS011;34397;51.176;6.738;2023-10-09T09:44:03;13.90;;;5.20;;
48550;SDS011;34397;51.176;6.738;2023-10-09T09:46:37;10.82;;;5.30;;
48550;SDS011;34397;51.176;6.738;2023-10-09T09:49:12;8.68;;;4.88;;
48550;SDS011;34397;51.176;6.738;2023-10-09T09:51:51;6.75;;;4.50;;
48550;SDS011;34397;51.176;6.738;2023-10-09T09:54:24;10.93;;;5.13;;
48550;SDS011;34397;51.176;6.738;2023-10-09T09:57:02;8.77;;;5.25;;
48550;SDS011;34397;51.176;6.738;2023-10-09T09:59:39;9.90;;;4.40;;
48550;SDS011;34397;51.176;6.738;2023-10-09T10:02:21;8.65;;;4.93;;
48550;SDS011;34397;51.176;6.738;2023-10-09T10:05:01;11.80;;;4.65;;
48550;SDS011;34397;51.176;6.738;2023-10-09T10:07:37;10.68;;;4.38;;
48550;SDS011;34397;51.176;6.738;2023-10-09T10:13:17;10.15;;;4.80;;
48550;SDS011;34397;51.176;6.738;2023-10-09T10:25:50;8.77;;;4.47;;
48550;SDS011;34397;51.176;6.738;2023-10-09T10:28:30;9.52;;;4.60;;
48550;SDS011;34397;51.176;6.738;2023-10-09T10:34:04;11.52;;;5.10;;
48550;SDS011;34397;51.176;6.738;2023-10-09T10:36:40;10.52;;;4.90;;
48550;SDS011;34397;51.176;6.738;2023-10-09T10:39:14;7.57;;;4.45;;
48550;SDS011;34397;51.176;6.738;2023-10-09T10:41:56;8.63;;;4.45;;
48550;SDS011;34397;51.176;6.738;2023-10-09T10:44:30;8.48;;;4.95;;
48550;SDS011;34397;51.176;6.738;2023-10-09T10:47:08;10.02;;;5.10;;
48550;SDS011;34397;51.176;6.738;2023-10-09T10:49:53;8.95;;;4.82;;
48550;SDS011;34397;51.176;6.738;2023-10-09T10:52:29;9.95;;;4.72;;
48550;SDS011;34397;51.176;6.738;2023-10-09T10:55:12;10.48;;;5.13;;
48550;SDS011;34397;51.176;6.738;2023-10-09T10:57:49;10.23;;;5.30;;
48550;SDS011;34397;51.176;6.738;2023-10-09T11:03:20;11.13;;;6.60;;
48550;SDS011;34397;51.176;6.738;2023-10-09T11:06:00;14.23;;;6.22;;
48550;SDS011;34397;51.176;6.738;2023-10-09T11:08:43;11.57;;;5.78;;
48550;SDS011;34397;51.176;6.738;2023-10-09T11:11:24;10.40;;;6.50;;
48550;SDS011;34397;51.176;6.738;2023-10-09T11:14:12;9.07;;;5.80;;
48550;SDS011;34397;51.176;6.738;2023-10-09T11:16:45;9.18;;;5.45;;
48550;SDS011;34397;51.176;6.738;2023-10-09T11:19:19;12.00;;;6.03;;
48550;SDS011;34397;51.176;6.738;2023-10-09T11:22:01;11.43;;;6.07;;
48550;SDS011;34397;51.176;6.738;2023-10-09T11:24:58;12.43;;;6.28;;
48550;SDS011;34397;51.176;6.738;2023-10-09T11:27:41;12.07;;;6.20;;
48550;SDS011;34397;51.176;6.738;2023-10-09T11:30:21;9.52;;;5.15;;
48550;SDS011;34397;51.176;6.738;2023-10-09T11:33:03;11.23;;;5.95;;
48550;SDS011;34397;51.176;6.738;2023-10-09T11:35:37;9.02;;;5.45;;
48550;SDS011;34397;51.176;6.738;2023-10-09T11:38:08;9.35;;;6.10;;
48550;SDS011;34397;51.176;6.738;2023-10-09T11:40:53;11.10;;;5.88;;
48550;SDS011;34397;51.176;6.738;2023-10-09T11:43:49;8.63;;;5.47;;
48550;SDS011;34397;51.176;6.738;2023-10-09T11:46:24;10.30;;;6.05;;
48550;SDS011;34397;51.176;6.738;2023-10-09T11:49:18;12.40;;;6.30;;
48550;SDS011;34397;51.176;6.738;2023-10-09T11:52:14;10.50;;;5.80;;
48550;SDS011;34397;51.176;6.738;2023-10-09T11:55:05;10.07;;;5.50;;
48550;SDS011;34397;51.176;6.738;2023-10-09T11:57:44;10.00;;;5.95;;
48550;SDS011;34397;51.176;6.738;2023-10-09T12:00:20;11.85;;;6.20;;
48550;SDS011;34397;51.176;6.738;2023-10-09T12:03:00;8.40;;;5.90;;
48550;SDS011;34397;51.176;6.738;2023-10-09T12:05:36;14.77;;;6.25;;
48550;SDS011;34397;51.176;6.738;2023-10-09T12:10:39;10.97;;;5.53;;
48550;SDS011;34397;51.176;6.738;2023-10-09T12:13:11;9.75;;;5.07;;
48550;SDS011;34397;51.176;6.738;2023-10-09T12:15:45;8.13;;;4.68;;
48550;SDS011;34397;51.176;6.738;2023-10-09T12:18:19;9.13;;;4.47;;
48550;SDS011;34397;51.176;6.738;2023-10-09T12:20:53;8.73;;;5.07;;
48550;SDS011;34397;51.176;6.738;2023-10-09T12:23:32;10.10;;;5.13;;
48550;SDS011;34397;51.176;6.738;2023-10-09T12:26:05;11.50;;;4.82;;
48550;SDS011;34397;51.176;6.738;2023-10-09T12:28:44;7.63;;;4.97;;
48550;SDS011;34397;51.176;6.738;2023-10-09T12:31:19;13.63;;;5.78;;
48550;SDS011;34397;51.176;6.738;2023-10-09T12:33:52;9.20;;;4.93;;
48550;SDS011;34397;51.176;6.738;2023-10-09T12:36:24;10.80;;;4.90;;
48550;SDS011;34397;51.176;6.738;2023-10-09T12:38:56;8.85;;;4.60;;
48550;SDS011;34397;51.176;6.738;2023-10-09T12:41:31;7.57;;;4.65;;
48550;SDS011;34397;51.176;6.738;2023-10-09T12:44:03;9.65;;;4.90;;
48550;SDS011;34397;51.176;6.738;2023-10-09T12:46:42;9.13;;;4.47;;
48550;SDS011;34397;51.176;6.738;2023-10-09T12:49:23;8.73;;;5.03;;
48550;SDS011;34397;51.176;6.738;2023-10-09T12:51:56;9.70;;;4.85;;
48550;SDS011;34397;51.176;6.738;2023-10-09T12:54:28;12.38;;;5.50;;
48550;SDS011;34397;51.176;6.738;2023-10-09T12:57:01;8.35;;;5.10;;
48550;SDS011;34397;51.176;6.738;2023-10-09T13:02:05;14.25;;;5.35;;
48550;SDS011;34397;51.176;6.738;2023-10-09T13:04:42;9.90;;;5.25;;
48550;SDS011;34397;51.176;6.738;2023-10-09T13:07:14;9.45;;;5.10;;
48550;SDS011;34397;51.176;6.738;2023-10-09T13:09:52;8.68;;;4.90;;
48550;SDS011;34397;51.176;6.738;2023-10-09T13:12:37;11.15;;;4.90;;
48550;SDS011;34397;51.176;6.738;2023-10-09T13:15:11;7.80;;;4.53;;
48550;SDS011;34397;51.176;6.738;2023-10-09T13:17:44;9.50;;;5.43;;
48550;SDS011;34397;51.176;6.738;2023-10-09T13:20:17;12.93;;;4.60;;
48550;SDS011;34397;51.176;6.738;2023-10-09T13:22:49;7.60;;;4.68;;
48550;SDS011;34397;51.176;6.738;2023-10-09T13:25:23;7.75;;;4.57;;
48550;SDS011;34397;51.176;6.738;2023-10-09T13:28:02;8.38;;;4.18;;
48550;SDS011;34397;51.176;6.738;2023-10-09T13:30:37;6.82;;;4.72;;
48550;SDS011;34397;51.176;6.738;2023-10-09T13:33:19;9.35;;;5.30;;
48550;SDS011;34397;51.176;6.738;2023-10-09T13:35:53;10.27;;;4.78;;
48550;SDS011;34397;51.176;6.738;2023-10-09T13:38:25;7.55;;;4.47;;
48550;SDS011;34397;51.176;6.738;2023-10-09T13:40:57;7.22;;;4.60;;
48550;SDS011;34397;51.176;6.738;2023-10-09T13:43:31;8.30;;;4.53;;
48550;SDS011;34397;51.176;6.738;2023-10-09T13:48:35;8.63;;;4.82;;
48550;SDS011;34397;51.176;6.738;2023-10-09T13:51:12;8.38;;;4.80;;
48550;SDS011;34397;51.176;6.738;2023-10-09T13:53:47;9.90;;;5.40;;
48550;SDS011;34397;51.176;6.738;2023-10-09T13:58:52;7.13;;;4.53;;
48550;SDS011;34397;51.176;6.738;2023-10-09T14:01:25;7.18;;;4.43;;
48550;SDS011;34397;51.176;6.738;2023-10-09T14:04:02;10.80;;;5.13;;
48550;SDS011;34397;51.176;6.738;2023-10-09T14:06:37;15.98;;;7.18;;
48550;SDS011;34397;51.176;6.738;2023-10-09T14:09:14;8.93;;;5.40;;
48550;SDS011;34397;51.176;6.738;2023-10-09T14:12:01;11.05;;;6.15;;
48550;SDS011;34397;51.176;6.738;2023-10-09T14:14:37;10.60;;;6.18;;
48550;SDS011;34397;51.176;6.738;2023-10-09T14:17:17;7.07;;;5.20;;
48550;SDS011;34397;51.176;6.738;2023-10-09T14:19:54;10.85;;;5.20;;
48550;SDS011;34397;51.176;6.738;2023-10-09T14:22:49;10.60;;;6.13;;
48550;SDS011;34397;51.176;6.738;2023-10-09T14:25:22;12.02;;;6.15;;
48550;SDS011;34397;51.176;6.738;2023-10-09T14:30:28;10.85;;;5.80;;
48550;SDS011;34397;51.176;6.738;2023-10-09T14:33:04;11.25;;;5.00;;
48550;SDS011;34397;51.176;6.738;2023-10-09T14:35:35;10.18;;;5.97;;
48550;SDS011;34397;51.176;6.738;2023-10-09T14:38:11;9.82;;;6.00;;
48550;SDS011;34397;51.176;6.738;2023-10-09T14:40:43;10.95;;;5.82;;
48550;SDS011;34397;51.176;6.738;2023-10-09T14:43:15;8.68;;;6.00;;
48550;SDS011;34397;51.176;6.738;2023-10-09T14:45:49;10.73;;;5.45;;
48550;SDS011;34397;51.176;6.738;2023-10-09T14:48:23;8.30;;;5.28;;
48550;SDS011;34397;51.176;6.738;2023-10-09T14:50:57;10.77;;;5.63;;
48550;SDS011;34397;51.176;6.738;2023-10-09T14:53:36;11.48;;;5.65;;
48550;SDS011;34397;51.176;6.738;2023-10-09T14:56:07;9.52;;;5.55;;
48550;SDS011;34397;51.176;6.738;2023-10-09T14:58:39;9.27;;;5.13;;
48550;SDS011;34397;51.176;6.738;2023-10-09T15:01:11;9.80;;;6.03;;
48550;SDS011;34397;51.176;6.738;2023-10-09T15:03:49;14.73;;;6.20;;
48550;SDS011;34397;51.176;6.738;2023-10-09T15:06:23;14.20;;;5.90;;
48550;SDS011;34397;51.176;6.738;2023-10-09T15:08:59;7.30;;;4.93;;
48550;SDS011;34397;51.176;6.738;2023-10-09T15:11:38;9.48;;;5.45;;
48550;SDS011;34397;51.176;6.738;2023-10-09T15:14:10;8.57;;;5.22;;
48550;SDS011;34397;51.176;6.738;2023-10-09T15:16:43;11.10;;;5.88;;
48550;SDS011;34397;51.176;6.738;2023-10-09T15:19:16;9.18;;;5.68;;
48550;SDS011;34397;51.176;6.738;2023-10-09T15:21:48;9.32;;;5.38;;
48550;SDS011;34397;51.176;6.738;2023-10-09T15:26:55;12.25;;;5.28;;
48550;SDS011;34397;51.176;6.738;2023-10-09T15:29:28;16.27;;;5.57;;
48550;SDS011;34397;51.176;6.738;2023-10-09T15:32:01;9.57;;;5.05;;
48550;SDS011;34397;51.176;6.738;2023-10-09T15:34:35;11.32;;;5.47;;
48550;SDS011;34397;51.176;6.738;2023-10-09T15:37:07;9.82;;;5.70;;
48550;SDS011;34397;51.176;6.738;2023-10-09T15:39:40;9.82;;;5.85;;
48550;SDS011;34397;51.176;6.738;2023-10-09T15:42:13;10.65;;;5.47;;
48550;SDS011;34397;51.176;6.738;2023-10-09T15:44:46;9.38;;;5.65;;
48550;SDS011;34397;51.176;6.738;2023-10-09T15:47:18;7.65;;;5.07;;
48550;SDS011;34397;51.176;6.738;2023-10-09T15:49:51;7.47;;;4.60;;
48550;SDS011;34397;51.176;6.738;2023-10-09T15:52:24;9.13;;;5.05;;
48550;SDS011;34397;51.176;6.738;2023-10-09T15:54:59;10.60;;;4.82;;
48550;SDS011;34397;51.176;6.738;2023-10-09T15:57:31;9.25;;;5.18;;
48550;SDS011;34397;51.176;6.738;2023-10-09T16:00:03;9.23;;;4.70;;
48550;SDS011;34397;51.176;6.738;2023-10-09T16:02:43;9.82;;;5.38;;
48550;SDS011;34397;51.176;6.738;2023-10-09T16:05:18;8.02;;;5.22;;
48550;SDS011;34397;51.176;6.738;2023-10-09T16:07:56;9.88;;;4.70;;
48550;SDS011;34397;51.176;6.738;2023-10-09T16:10:31;7.60;;;4.72;;
48550;SDS011;34397;51.176;6.738;2023-10-09T16:13:04;8.38;;;4.75;;
48550;SDS011;34397;51.176;6.738;2023-10-09T16:15:43;7.47;;;4.57;;
48550;SDS011;34397;51.176;6.738;2023-10-09T16:18:15;9.63;;;4.82;;
48550;SDS011;34397;51.176;6.738;2023-10-09T16:20:47;8.30;;;4.75;;
48550;SDS011;34397;51.176;6.738;2023-10-09T16:23:19;13.88;;;5.88;;
48550;SDS011;34397;51.176;6.738;2023-10-09T16:25:52;7.47;;;4.82;;
48550;SDS011;34397;51.176;6.738;2023-10-09T16:28:24;7.85;;;4.80;;